Time;durP1;ratioP1;P1;durP2;ratioP2;P2;SDS_P1;SDS_P2;PMS_P1;PMS_P2;Temp;Humidity;BMP_temperature;BMP_pressure;BME280_temperature;BME280_humidity;BME280_pressure;Samples;Min_cycle;Max_cycle;Signal;HPM_P1;HPM_P2
2021/07/16 00:00:14;;;;;;;10.45;9.38;;;;;;;;;;3626394;39;20083;-54
2021/07/16 00:02:43;;;;;;;10.55;9.45;;;;;;;;;;3623811;39;20200;-48
2021/07/16 00:05:12;;;;;;;11.05;9.95;;;;;;;;;;3626181;39;20051;-52
2021/07/16 00:07:40;;;;;;;10.80;9.73;;;;;;;;;;3626227;39;20043;-52
2021/07/16 00:10:11;;;;;;;11.73;9.60;;;;;;;;;;3627510;39;20073;-51
2021/07/16 00:12:38;;;;;;;11.77;10.52;;;;;;;;;;3627796;39;20082;-52
2021/07/16 00:15:10;;;;;;;12.73;11.52;;;;;;;;;;3627454;39;20058;-51
2021/07/16 00:17:39;;;;;;;12.65;11.45;;;;;;;;;;3627601;39;20046;-50
2021/07/16 00:20:08;;;;;;;11.73;10.52;;;;;;;;;;3627984;39;20053;-51
2021/07/16 00:22:35;;;;;;;12.00;10.75;;;;;;;;;;3616065;39;20040;-53
2021/07/16 00:25:05;;;;;;;10.02;9.02;;;;;;;;;;3616828;39;20051;-42
2021/07/16 00:27:32;;;;;;;10.15;9.15;;;;;;;;;;3617418;39;20055;-51
2021/07/16 00:30:00;;;;;;;10.73;9.63;;;;;;;;;;3617459;39;20051;-53
2021/07/16 00:32:28;;;;;;;11.93;10.43;;;;;;;;;;3617275;39;20055;-47
2021/07/16 00:34:55;;;;;;;11.40;10.30;;;;;;;;;;3607857;39;20048;-47
2021/07/16 00:37:23;;;;;;;10.25;9.23;;;;;;;;;;3616399;39;20039;-43
2021/07/16 00:39:50;;;;;;;12.10;10.20;;;;;;;;;;3607346;39;20067;-51
2021/07/16 00:42:18;;;;;;;11.02;10.00;;;;;;;;;;3607170;39;20091;-46
2021/07/16 00:44:47;;;;;;;10.98;9.88;;;;;;;;;;3607074;39;20085;-50
2021/07/16 00:47:14;;;;;;;11.75;9.75;;;;;;;;;;3607051;39;20074;-50
2021/07/16 00:49:41;;;;;;;11.70;10.02;;;;;;;;;;3606820;39;20097;-50
2021/07/16 00:52:08;;;;;;;10.93;9.93;;;;;;;;;;3606790;39;20043;-48
2021/07/16 00:54:36;;;;;;;11.05;9.95;;;;;;;;;;3607191;39;20079;-48
2021/07/16 00:57:07;;;;;;;11.60;10.50;;;;;;;;;;3606946;39;20916;-51
2021/07/16 00:59:34;;;;;;;12.10;10.90;;;;;;;;;;3607235;39;20070;-44
2021/07/16 01:02:02;;;;;;;10.73;9.73;;;;;;;;;;3607123;39;20063;-43
2021/07/16 01:04:31;;;;;;;10.57;9.48;;;;;;;;;;3606923;39;20055;-46
2021/07/16 01:06:58;;;;;;;13.63;12.43;;;;;;;;;;3606917;39;20044;-50
2021/07/16 01:09:25;;;;;;;11.50;10.30;;;;;;;;;;3616696;39;20603;-47
2021/07/16 01:11:53;;;;;;;12.90;10.90;;;;;;;;;;3617204;39;20051;-41
2021/07/16 01:14:22;;;;;;;11.82;10.73;;;;;;;;;;3617194;39;20059;-48
2021/07/16 01:16:49;;;;;;;11.50;10.35;;;;;;;;;;3617047;39;20047;-52
2021/07/16 01:19:30;;;;;;;12.38;11.18;;;;;;;;;;3606723;39;20066;-50
2021/07/16 01:22:01;;;;;;;11.85;10.18;;;;;;;;;;3614650;39;20042;-47
2021/07/16 01:24:28;;;;;;;13.52;11.95;;;;;;;;;;3627334;39;20443;-51
2021/07/16 01:26:56;;;;;;;12.73;10.98;;;;;;;;;;3627471;39;20414;-52
2021/07/16 01:29:23;;;;;;;12.65;11.13;;;;;;;;;;3627726;39;20407;-46
2021/07/16 01:31:51;;;;;;;13.38;10.30;;;;;;;;;;3627253;39;20054;-45
2021/07/16 01:34:19;;;;;;;12.38;11.20;;;;;;;;;;3627547;39;20123;-44
2021/07/16 01:36:47;;;;;;;13.73;11.73;;;;;;;;;;3627178;39;20114;-47
2021/07/16 01:39:14;;;;;;;12.50;11.30;;;;;;;;;;3627332;39;20046;-53
2021/07/16 01:41:41;;;;;;;12.05;10.85;;;;;;;;;;3626990;39;20054;-49
2021/07/16 01:44:09;;;;;;;14.52;12.88;;;;;;;;;;3627431;39;20049;-52
2021/07/16 01:46:36;;;;;;;13.70;12.23;;;;;;;;;;3627107;39;20070;-52
2021/07/16 01:49:04;;;;;;;12.68;11.48;;;;;;;;;;3627074;39;20376;-47
2021/07/16 01:51:32;;;;;;;12.75;11.48;;;;;;;;;;3626964;39;20042;-48
2021/07/16 01:53:59;;;;;;;13.60;12.18;;;;;;;;;;3627341;39;20430;-47
2021/07/16 01:56:27;;;;;;;13.02;11.75;;;;;;;;;;3617468;39;20047;-46
2021/07/16 01:58:54;;;;;;;12.57;11.27;;;;;;;;;;3627100;39;20060;-50
2021/07/16 02:01:24;;;;;;;13.10;11.80;;;;;;;;;;3627018;39;20043;-49
2021/07/16 02:03:52;;;;;;;14.00;12.15;;;;;;;;;;3627199;39;20054;-48
2021/07/16 02:06:20;;;;;;;13.65;12.13;;;;;;;;;;3626858;39;20055;-53
2021/07/16 02:08:47;;;;;;;13.05;11.75;;;;;;;;;;3626515;39;20054;-46
2021/07/16 02:11:15;;;;;;;11.35;10.25;;;;;;;;;;3627219;39;20075;-53
2021/07/16 02:13:43;;;;;;;13.43;12.15;;;;;;;;;;3627092;39;20431;-47
2021/07/16 02:16:10;;;;;;;13.18;11.88;;;;;;;;;;3617118;39;20528;-50
2021/07/16 02:18:37;;;;;;;13.38;12.05;;;;;;;;;;3626782;39;20043;-52
2021/07/16 02:21:04;;;;;;;12.93;11.52;;;;;;;;;;3627104;39;20043;-50
2021/07/16 02:23:32;;;;;;;13.10;11.80;;;;;;;;;;3626761;39;20045;-52
2021/07/16 02:25:59;;;;;;;13.57;11.60;;;;;;;;;;3626894;39;20043;-52
2021/07/16 02:28:31;;;;;;;13.35;12.05;;;;;;;;;;3627017;39;20462;-48
2021/07/16 02:31:05;;;;;;;13.30;12.02;;;;;;;;;;3616865;39;20801;-49
2021/07/16 02:33:33;;;;;;;13.48;12.18;;;;;;;;;;3626788;39;20524;-44
2021/07/16 02:36:02;;;;;;;16.42;12.18;;;;;;;;;;3624862;39;20323;-45
2021/07/16 02:38:29;;;;;;;12.70;11.52;;;;;;;;;;3626712;39;20062;-47
2021/07/16 02:40:56;;;;;;;11.40;10.30;;;;;;;;;;3627029;39;20049;-47
2021/07/16 02:43:24;;;;;;;12.55;11.43;;;;;;;;;;3626306;39;20125;-48
2021/07/16 02:45:52;;;;;;;12.57;11.30;;;;;;;;;;3626536;39;20055;-52
2021/07/16 02:48:20;;;;;;;13.07;11.77;;;;;;;;;;3626644;39;20054;-48
2021/07/16 02:50:48;;;;;;;12.02;10.82;;;;;;;;;;3626746;39;20042;-44
2021/07/16 02:53:20;;;;;;;13.13;11.73;;;;;;;;;;3624627;39;20053;-50
2021/07/16 02:55:49;;;;;;;11.60;10.48;;;;;;;;;;3626963;39;20046;-51
2021/07/16 02:58:16;;;;;;;12.75;10.65;;;;;;;;;;3626623;39;20434;-44
2021/07/16 03:00:43;;;;;;;12.32;11.02;;;;;;;;;;3626683;39;20412;-50
2021/07/16 03:03:11;;;;;;;11.27;10.18;;;;;;;;;;3626810;39;20407;-52
2021/07/16 03:05:39;;;;;;;11.15;10.00;;;;;;;;;;3626700;39;20054;-50
2021/07/16 03:08:09;;;;;;;12.13;10.93;;;;;;;;;;3626489;39;20050;-46
2021/07/16 03:10:39;;;;;;;12.00;10.80;;;;;;;;;;3624672;39;20046;-53
2021/07/16 03:13:12;;;;;;;11.80;10.57;;;;;;;;;;3626876;39;20054;-51
2021/07/16 03:15:41;;;;;;;10.73;9.63;;;;;;;;;;3626259;39;20054;-46
2021/07/16 03:18:09;;;;;;;11.05;9.10;;;;;;;;;;3626475;39;20123;-48
2021/07/16 03:20:39;;;;;;;11.00;9.77;;;;;;;;;;3626572;39;20046;-47
2021/07/16 03:23:11;;;;;;;10.35;9.35;;;;;;;;;;3626121;39;20133;-49
2021/07/16 03:25:39;;;;;;;10.05;9.02;;;;;;;;;;3624941;39;20083;-46
2021/07/16 03:28:08;;;;;;;9.52;8.63;;;;;;;;;;3626709;39;20046;-51
2021/07/16 03:30:35;;;;;;;9.68;8.75;;;;;;;;;;3625924;39;20065;-47
2021/07/16 03:33:04;;;;;;;8.93;8.02;;;;;;;;;;3626490;39;20090;-52
2021/07/16 03:35:31;;;;;;;8.50;7.68;;;;;;;;;;3616862;39;20860;-52
2021/07/16 03:37:58;;;;;;;10.55;7.70;;;;;;;;;;3626409;39;20058;-52
2021/07/16 03:40:29;;;;;;;8.52;7.10;;;;;;;;;;3626134;39;20055;-47
2021/07/16 03:42:58;;;;;;;8.32;6.65;;;;;;;;;;3626393;39;20046;-53
2021/07/16 03:45:27;;;;;;;9.85;6.53;;;;;;;;;;3628136;39;20055;-50
2021/07/16 03:47:54;;;;;;;6.82;6.03;;;;;;;;;;3627528;39;20056;-47
2021/07/16 03:50:23;;;;;;;8.70;6.00;;;;;;;;;;3628096;39;20122;-48
2021/07/16 03:52:51;;;;;;;6.22;5.55;;;;;;;;;;3627963;39;20058;-51
2021/07/16 03:55:19;;;;;;;5.95;5.35;;;;;;;;;;3628079;39;20050;-52
2021/07/16 03:57:49;;;;;;;6.57;5.70;;;;;;;;;;3627566;39;20038;-48
2021/07/16 04:00:19;;;;;;;5.70;4.70;;;;;;;;;;3627538;39;20118;-44
2021/07/16 04:02:47;;;;;;;5.97;5.35;;;;;;;;;;3627863;39;20073;-46
2021/07/16 04:05:14;;;;;;;62.08;32.70;;;;;;;;;;3627682;39;20052;-49
2021/07/16 04:07:49;;;;;;;10.98;7.72;;;;;;;;;;3627916;39;20043;-53
2021/07/16 04:10:22;;;;;;;6.55;5.30;;;;;;;;;;3627857;39;20071;-49
2021/07/16 04:12:55;;;;;;;7.45;4.75;;;;;;;;;;3627561;39;20131;-46
2021/07/16 04:15:26;;;;;;;5.20;4.15;;;;;;;;;;3627656;39;20325;-43
2021/07/16 04:17:55;;;;;;;7.28;3.90;;;;;;;;;;3627325;39;20043;-46
2021/07/16 04:20:23;;;;;;;5.50;3.90;;;;;;;;;;3628055;39;20062;-47
2021/07/16 04:22:50;;;;;;;4.28;3.58;;;;;;;;;;3627653;39;20042;-50
2021/07/16 04:25:18;;;;;;;5.85;3.97;;;;;;;;;;3627237;39;20057;-44
2021/07/16 04:27:51;;;;;;;12.07;3.97;;;;;;;;;;3625653;39;20058;-43
2021/07/16 04:30:21;;;;;;;4.72;3.45;;;;;;;;;;3628046;39;20059;-52
2021/07/16 04:32:52;;;;;;;3.75;3.10;;;;;;;;;;3627723;39;20051;-44
2021/07/16 04:35:20;;;;;;;4.45;3.45;;;;;;;;;;3627985;39;20411;-43
2021/07/16 04:37:47;;;;;;;4.13;3.30;;;;;;;;;;3627733;39;20146;-53
2021/07/16 04:40:20;;;;;;;6.88;3.92;;;;;;;;;;3627735;39;20061;-52
2021/07/16 04:42:53;;;;;;;5.35;3.78;;;;;;;;;;3627724;39;20046;-54
2021/07/16 04:45:21;;;;;;;23.88;12.38;;;;;;;;;;3627821;39;20050;-49
2021/07/16 04:47:48;;;;;;;13.05;7.00;;;;;;;;;;3627408;39;20043;-48
2021/07/16 04:50:17;;;;;;;10.70;7.35;;;;;;;;;;3627637;39;20442;-49
2021/07/16 04:52:47;;;;;;;3.95;3.35;;;;;;;;;;3627923;39;20534;-53
2021/07/16 04:55:15;;;;;;;5.70;3.17;;;;;;;;;;3627279;39;20054;-52
2021/07/16 04:57:43;;;;;;;3.95;3.20;;;;;;;;;;3627395;39;20047;-52
2021/07/16 05:00:11;;;;;;;4.13;2.85;;;;;;;;;;3627580;39;20054;-51
2021/07/16 05:02:39;;;;;;;4.05;3.10;;;;;;;;;;3627610;39;20054;-52
2021/07/16 05:05:07;;;;;;;6.78;2.78;;;;;;;;;;3626811;39;20507;-50
2021/07/16 05:07:35;;;;;;;4.32;2.67;;;;;;;;;;3627463;39;20059;-49
2021/07/16 05:10:04;;;;;;;4.47;3.10;;;;;;;;;;3627704;39;20054;-51
2021/07/16 05:12:34;;;;;;;3.80;2.80;;;;;;;;;;3627391;39;20051;-47
2021/07/16 05:15:03;;;;;;;4.10;3.20;;;;;;;;;;3627172;39;20323;-54
2021/07/16 05:17:31;;;;;;;4.75;2.40;;;;;;;;;;3627317;39;20090;-54
2021/07/16 05:20:01;;;;;;;3.58;2.63;;;;;;;;;;3627445;39;20075;-52
2021/07/16 05:22:33;;;;;;;48.90;21.73;;;;;;;;;;3626935;39;20042;-50
2021/07/16 05:25:23;;;;;;;4.50;2.47;;;;;;;;;;3626918;39;20054;-52
2021/07/16 05:28:00;;;;;;;7.78;2.45;;;;;;;;;;3627259;39;20047;-49
2021/07/16 05:30:29;;;;;;;4.38;2.35;;;;;;;;;;3626983;39;20042;-52
2021/07/16 05:32:56;;;;;;;5.00;2.25;;;;;;;;;;3627452;39;20055;-50
2021/07/16 05:35:23;;;;;;;4.13;2.20;;;;;;;;;;3627085;39;20762;-49
2021/07/16 05:37:51;;;;;;;3.42;2.22;;;;;;;;;;3627376;39;20042;-46
2021/07/16 05:40:19;;;;;;;3.33;1.90;;;;;;;;;;3627190;39;20140;-54
2021/07/16 05:42:47;;;;;;;14.70;8.20;;;;;;;;;;3627307;39;20043;-54
2021/07/16 05:45:14;;;;;;;56.40;33.65;;;;;;;;;;3627032;39;20420;-51
2021/07/16 05:47:42;;;;;;;22.73;16.40;;;;;;;;;;3627187;39;20051;-51
2021/07/16 05:50:09;;;;;;;4.72;2.05;;;;;;;;;;3625079;39;20114;-51
2021/07/16 05:52:37;;;;;;;3.17;1.65;;;;;;;;;;3627161;39;20062;-48
2021/07/16 05:55:05;;;;;;;3.80;1.60;;;;;;;;;;3627152;39;20050;-52
2021/07/16 05:57:34;;;;;;;4.45;1.80;;;;;;;;;;3626882;39;20053;-54
2021/07/16 06:00:04;;;;;;;3.50;1.63;;;;;;;;;;3627251;39;20058;-52
2021/07/16 06:02:38;;;;;;;5.05;1.50;;;;;;;;;;3627103;39;20047;-54
2021/07/16 06:05:06;;;;;;;6.55;1.67;;;;;;;;;;3627195;39;20054;-50
2021/07/16 06:07:34;;;;;;;5.45;1.50;;;;;;;;;;3626718;39;20094;-55
2021/07/16 06:10:01;;;;;;;2.50;1.00;;;;;;;;;;3627191;39;20095;-49
2021/07/16 06:12:28;;;;;;;2.85;1.15;;;;;;;;;;3626821;39;20083;-50
2021/07/16 06:14:56;;;;;;;1.65;1.15;;;;;;;;;;3624970;39;20042;-48
2021/07/16 06:17:25;;;;;;;1.73;1.10;;;;;;;;;;3627204;39;20066;-46
2021/07/16 06:19:52;;;;;;;2.45;1.20;;;;;;;;;;3627153;39;20127;-49
2021/07/16 06:22:20;;;;;;;2.65;1.40;;;;;;;;;;3626997;39;20123;-55
2021/07/16 06:24:47;;;;;;;2.40;1.00;;;;;;;;;;3626755;39;20060;-51
2021/07/16 06:27:15;;;;;;;5.82;1.27;;;;;;;;;;3627132;39;20054;-55
2021/07/16 06:29:42;;;;;;;4.65;1.95;;;;;;;;;;3627097;39;20411;-55
2021/07/16 06:32:10;;;;;;;2.78;1.00;;;;;;;;;;3626536;39;20065;-56
2021/07/16 06:34:37;;;;;;;20.08;11.10;;;;;;;;;;3626920;39;20054;-51
2021/07/16 06:37:05;;;;;;;13.75;7.22;;;;;;;;;;3626909;39;20047;-56
2021/07/16 06:39:32;;;;;;;4.13;1.52;;;;;;;;;;3626911;39;20443;-48
2021/07/16 06:41:59;;;;;;;11.55;5.28;;;;;;;;;;3617330;39;20095;-54
2021/07/16 06:44:27;;;;;;;3.22;0.98;;;;;;;;;;3626671;39;20050;-49
2021/07/16 06:46:54;;;;;;;3.17;0.90;;;;;;;;;;3616291;39;20069;-53
2021/07/16 06:49:26;;;;;;;3.45;1.00;;;;;;;;;;3616617;39;20047;-48
2021/07/16 06:51:55;;;;;;;2.83;1.15;;;;;;;;;;3625130;39;20066;-48
2021/07/16 06:54:24;;;;;;;2.13;0.60;;;;;;;;;;3626961;39;20046;-55
2021/07/16 06:56:52;;;;;;;2.38;0.73;;;;;;;;;;3626694;39;20082;-50
2021/07/16 06:59:21;;;;;;;4.05;0.70;;;;;;;;;;3626973;39;20065;-53
2021/07/16 07:01:49;;;;;;;3.90;0.77;;;;;;;;;;3626693;39;20439;-52
2021/07/16 07:04:17;;;;;;;1.92;0.95;;;;;;;;;;3626453;39;20058;-53
2021/07/16 07:06:44;;;;;;;2.10;0.73;;;;;;;;;;3626750;39;20138;-52
2021/07/16 07:09:12;;;;;;;4.03;0.70;;;;;;;;;;3626788;39;20054;-46
2021/07/16 07:11:39;;;;;;;1.35;0.70;;;;;;;;;;3626678;39;20047;-53
2021/07/16 07:14:06;;;;;;;2.45;0.80;;;;;;;;;;3626558;39;20412;-45
2021/07/16 07:16:34;;;;;;;3.30;0.90;;;;;;;;;;3626585;39;20515;-53
2021/07/16 07:19:03;;;;;;;3.28;0.70;;;;;;;;;;3626504;39;20050;-48
2021/07/16 07:21:30;;;;;;;11.70;1.48;;;;;;;;;;3626489;39;20035;-49
2021/07/16 07:23:57;;;;;;;4.78;1.00;;;;;;;;;;3626054;39;20395;-54
2021/07/16 07:26:25;;;;;;;4.10;1.50;;;;;;;;;;3626628;39;20047;-52
2021/07/16 07:28:52;;;;;;;3.35;1.45;;;;;;;;;;3626457;39;20066;-48
2021/07/16 07:31:19;;;;;;;3.50;0.77;;;;;;;;;;3616962;39;20045;-47
2021/07/16 07:33:47;;;;;;;3.45;0.90;;;;;;;;;;3626094;39;20532;-47
2021/07/16 07:36:14;;;;;;;2.50;0.80;;;;;;;;;;3626688;39;20054;-53
2021/07/16 07:38:43;;;;;;;2.00;0.73;;;;;;;;;;3626799;39;20362;-51
2021/07/16 07:41:11;;;;;;;9.50;1.00;;;;;;;;;;3626395;39;20119;-53
2021/07/16 07:43:38;;;;;;;3.17;0.80;;;;;;;;;;3626305;39;20082;-56
2021/07/16 07:46:06;;;;;;;2.50;0.85;;;;;;;;;;3626494;39;20078;-56
2021/07/16 07:48:34;;;;;;;2.38;0.70;;;;;;;;;;3626379;39;20130;-47
2021/07/16 07:51:01;;;;;;;2.83;0.80;;;;;;;;;;3626087;39;20039;-46
2021/07/16 07:53:28;;;;;;;1.70;0.60;;;;;;;;;;3626408;39;20460;-46
2021/07/16 07:55:56;;;;;;;2.28;0.70;;;;;;;;;;3626381;39;20726;-53
2021/07/16 07:58:23;;;;;;;2.25;0.50;;;;;;;;;;3626511;39;20053;-49
2021/07/16 08:00:50;;;;;;;34.72;14.90;;;;;;;;;;3625719;39;20044;-46
2021/07/16 08:03:18;;;;;;;10.35;5.22;;;;;;;;;;3626643;39;20054;-56
2021/07/16 08:05:46;;;;;;;4.20;1.15;;;;;;;;;;3626285;39;20054;-47
2021/07/16 08:08:13;;;;;;;3.53;0.60;;;;;;;;;;3626318;39;20051;-50
2021/07/16 08:10:40;;;;;;;2.33;0.63;;;;;;;;;;3625581;39;20104;-50
2021/07/16 08:13:08;;;;;;;1.40;0.50;;;;;;;;;;3626155;39;20738;-44
2021/07/16 08:15:36;;;;;;;2.22;0.50;;;;;;;;;;3626111;39;20043;-53
2021/07/16 08:18:04;;;;;;;4.00;0.77;;;;;;;;;;3626136;39;20043;-43
2021/07/16 08:20:31;;;;;;;1.95;0.60;;;;;;;;;;3626118;39;20077;-52
2021/07/16 08:22:58;;;;;;;1.88;0.50;;;;;;;;;;3625905;39;20050;-44
2021/07/16 08:25:25;;;;;;;18.30;8.15;;;;;;;;;;3626060;39;20039;-53
2021/07/16 08:27:53;;;;;;;4.00;1.38;;;;;;;;;;3625653;39;20083;-45
2021/07/16 08:30:20;;;;;;;4.88;2.28;;;;;;;;;;3627154;39;20061;-52
2021/07/16 08:32:47;;;;;;;1.67;0.60;;;;;;;;;;3627813;39;20056;-53
2021/07/16 08:35:15;;;;;;;1.52;0.65;;;;;;;;;;3627881;39;20050;-52
2021/07/16 08:37:42;;;;;;;2.22;0.80;;;;;;;;;;3617537;39;20047;-44
2021/07/16 08:40:10;;;;;;;2.13;0.65;;;;;;;;;;3627612;39;20046;-52
2021/07/16 08:42:38;;;;;;;2.78;0.60;;;;;;;;;;3627495;39;20066;-51
2021/07/16 08:45:07;;;;;;;3.03;0.93;;;;;;;;;;3627556;39;20058;-53
2021/07/16 08:47:34;;;;;;;2.55;0.40;;;;;;;;;;3627579;39;20071;-53
2021/07/16 08:50:04;;;;;;;2.85;0.70;;;;;;;;;;3627564;39;20077;-52
2021/07/16 08:52:32;;;;;;;1.65;0.50;;;;;;;;;;3627660;39;20077;-51
2021/07/16 08:55:01;;;;;;;0.82;0.50;;;;;;;;;;3626906;39;20062;-50
2021/07/16 08:57:30;;;;;;;2.97;0.63;;;;;;;;;;3627560;39;20059;-53
2021/07/16 08:59:58;;;;;;;11.35;5.18;;;;;;;;;;3627789;39;20135;-49
2021/07/16 09:02:28;;;;;;;5.28;2.10;;;;;;;;;;3627375;39;20047;-45
2021/07/16 09:05:08;;;;;;;2.45;0.63;;;;;;;;;;3627335;39;20143;-52
2021/07/16 09:07:49;;;;;;;3.95;0.80;;;;;;;;;;3627718;39;20047;-52
2021/07/16 09:10:20;;;;;;;1.17;0.30;;;;;;;;;;3627617;39;20135;-54
2021/07/16 09:13:01;;;;;;;1.42;0.90;;;;;;;;;;3627597;39;20055;-53
2021/07/16 09:15:29;;;;;;;2.20;0.55;;;;;;;;;;3627595;39;20485;-47
2021/07/16 09:18:38;;;;;;;0.68;0.38;;;;;;;;;;3627416;39;20050;-51
2021/07/16 09:21:10;;;;;;;3.03;0.50;;;;;;;;;;3584639;40;20067;-47
2021/07/16 09:23:40;;;;;;;2.17;0.47;;;;;;;;;;3584838;40;20122;-53
2021/07/16 09:26:12;;;;;;;1.20;0.50;;;;;;;;;;3608281;39;20050;-50
2021/07/16 09:28:44;;;;;;;4.35;0.77;;;;;;;;;;3627277;39;20421;-50
2021/07/16 09:31:27;;;;;;;2.65;0.40;;;;;;;;;;3627286;39;20043;-53
2021/07/16 09:34:03;;;;;;;1.73;0.50;;;;;;;;;;3627251;39;20051;-51
2021/07/16 09:36:38;;;;;;;3.42;0.60;;;;;;;;;;3626856;39;20046;-52
2021/07/16 09:39:18;;;;;;;2.10;0.43;;;;;;;;;;3627355;39;20070;-54
2021/07/16 09:41:51;;;;;;;0.95;0.40;;;;;;;;;;3626866;39;20045;-56
2021/07/16 09:44:45;;;;;;;1.48;0.40;;;;;;;;;;3626413;39;20050;-50
2021/07/16 09:47:18;;;;;;;2.00;0.60;;;;;;;;;;3626351;39;20046;-53
2021/07/16 09:50:02;;;;;;;10.45;4.63;;;;;;;;;;3624824;39;20051;-48
2021/07/16 09:52:30;;;;;;;13.48;8.18;;;;;;;;;;3625305;39;20050;-46
2021/07/16 09:55:18;;;;;;;1.73;0.70;;;;;;;;;;3624952;39;20051;-46
2021/07/16 09:57:52;;;;;;;1.42;0.50;;;;;;;;;;3625115;39;20043;-51
2021/07/16 10:00:22;;;;;;;2.45;0.47;;;;;;;;;;3625375;39;20096;-56
2021/07/16 10:02:55;;;;;;;2.30;0.40;;;;;;;;;;3615391;39;20050;-52
2021/07/16 10:05:23;;;;;;;2.08;0.70;;;;;;;;;;3624591;39;20429;-47
2021/07/16 10:07:52;;;;;;;2.92;0.68;;;;;;;;;;3625730;39;20082;-52
2021/07/16 10:10:23;;;;;;;2.83;0.60;;;;;;;;;;3625960;39;20042;-51
2021/07/16 10:12:51;;;;;;;1.60;0.52;;;;;;;;;;3625422;39;20043;-49
2021/07/16 10:15:20;;;;;;;4.30;0.45;;;;;;;;;;3625839;39;20490;-51
2021/07/16 10:17:49;;;;;;;2.72;0.65;;;;;;;;;;3625806;39;20139;-55
2021/07/16 10:20:18;;;;;;;2.15;0.50;;;;;;;;;;3625684;39;20042;-53
2021/07/16 10:22:49;;;;;;;2.00;0.47;;;;;;;;;;3616463;39;20430;-60
2021/07/16 10:25:18;;;;;;;52.50;29.25;;;;;;;;;;3625665;39;20430;-56
2021/07/16 10:27:46;;;;;;;9.23;4.47;;;;;;;;;;3624995;39;20123;-54
2021/07/16 10:30:16;;;;;;;2.25;0.95;;;;;;;;;;3625971;39;20062;-51
2021/07/16 10:32:46;;;;;;;1.77;0.50;;;;;;;;;;3626018;39;20051;-46
2021/07/16 10:35:26;;;;;;;1.67;0.60;;;;;;;;;;3625812;39;20125;-50
2021/07/16 10:38:02;;;;;;;0.98;0.30;;;;;;;;;;3625959;39;20135;-45
2021/07/16 10:40:44;;;;;;;1.65;0.50;;;;;;;;;;3625862;39;20043;-51
2021/07/16 10:43:23;;;;;;;3.97;0.55;;;;;;;;;;3626207;39;20054;-57
2021/07/16 10:45:52;;;;;;;3.30;0.40;;;;;;;;;;3626148;39;20058;-53
2021/07/16 10:48:22;;;;;;;0.70;0.30;;;;;;;;;;3625966;39;20061;-52
2021/07/16 10:50:52;;;;;;;3.88;0.30;;;;;;;;;;3625253;39;20050;-55
2021/07/16 10:53:29;;;;;;;1.77;0.40;;;;;;;;;;3625562;39;20062;-57
2021/07/16 10:55:57;;;;;;;1.02;0.32;;;;;;;;;;3625755;39;20042;-53
2021/07/16 10:58:30;;;;;;;2.33;0.60;;;;;;;;;;3623375;39;20411;-45
2021/07/16 11:00:57;;;;;;;;;;;;;;;;;;3626421;39;20058;-55
2021/07/16 11:03:41;;;;;;;2.83;0.30;;;;;;;;;;3625730;39;19931;-47
2021/07/16 11:06:11;;;;;;;1.85;0.60;;;;;;;;;;3626033;39;20094;-51
2021/07/16 11:08:39;;;;;;;2.30;0.55;;;;;;;;;;3626336;39;20061;-46
2021/07/16 11:11:08;;;;;;;10.02;8.35;;;;;;;;;;3626359;39;20147;-57
2021/07/16 11:13:45;;;;;;;16.83;7.15;;;;;;;;;;3625939;39;20046;-54
2021/07/16 11:16:29;;;;;;;3.67;1.10;;;;;;;;;;3626654;39;20058;-53
2021/07/16 11:18:57;;;;;;;1.30;0.50;;;;;;;;;;3626602;39;20061;-56
2021/07/16 11:21:40;;;;;;;0.75;0.38;;;;;;;;;;3626305;39;20130;-45
2021/07/16 11:24:20;;;;;;;3.28;0.25;;;;;;;;;;3626766;39;20055;-55
2021/07/16 11:27:03;;;;;;;2.00;0.60;;;;;;;;;;3626495;39;20059;-56
2021/07/16 11:29:36;;;;;;;1.95;0.60;;;;;;;;;;3626626;39;20051;-56
2021/07/16 11:32:15;;;;;;;1.88;0.40;;;;;;;;;;3625614;39;20056;-57
2021/07/16 11:34:49;;;;;;;1.20;0.40;;;;;;;;;;3624175;39;20064;-55
2021/07/16 11:37:30;;;;;;;1.67;0.35;;;;;;;;;;3626430;39;20316;-57
2021/07/16 11:40:05;;;;;;;0.70;0.30;;;;;;;;;;3626512;39;20116;-53
2021/07/16 11:42:35;;;;;;;2.38;0.30;;;;;;;;;;3626120;39;20051;-51
2021/07/16 11:45:06;;;;;;;1.08;0.38;;;;;;;;;;3626151;39;20047;-56
2021/07/16 11:47:33;;;;;;;1.67;0.30;;;;;;;;;;3626329;39;20051;-54
2021/07/16 11:50:05;;;;;;;0.70;0.28;;;;;;;;;;3626576;39;20054;-56
2021/07/16 11:52:33;;;;;;;1.10;0.40;;;;;;;;;;3626133;39;20125;-53
2021/07/16 11:55:08;;;;;;;1.13;0.50;;;;;;;;;;3626504;39;20047;-49
2021/07/16 11:57:47;;;;;;;1.80;0.40;;;;;;;;;;3623802;39;20315;-56
2021/07/16 12:00:15;;;;;;;1.70;0.43;;;;;;;;;;3626480;39;20086;-52
2021/07/16 12:02:43;;;;;;;1.17;0.40;;;;;;;;;;3626395;39;20063;-53
2021/07/16 12:05:11;;;;;;;1.55;0.30;;;;;;;;;;3626857;39;20062;-46
2021/07/16 12:07:41;;;;;;;2.10;0.40;;;;;;;;;;3627476;39;20039;-52
2021/07/16 12:10:17;;;;;;;30.27;23.15;;;;;;;;;;3627761;39;20035;-49
2021/07/16 12:12:45;;;;;;;8.50;3.08;;;;;;;;;;3627669;39;20454;-55
2021/07/16 12:15:23;;;;;;;6.82;1.25;;;;;;;;;;3627829;39;20163;-52
2021/07/16 12:18:01;;;;;;;1.45;0.43;;;;;;;;;;3627754;39;20054;-51
2021/07/16 12:20:29;;;;;;;3.40;0.30;;;;;;;;;;3627942;39;20051;-56
2021/07/16 12:22:58;;;;;;;3.08;0.70;;;;;;;;;;3627322;39;20035;-46
2021/07/16 12:25:26;;;;;;;2.20;0.55;;;;;;;;;;3625339;39;20063;-48
2021/07/16 12:28:15;;;;;;;1.95;0.57;;;;;;;;;;3627439;39;20054;-57
2021/07/16 12:30:42;;;;;;;1.52;0.60;;;;;;;;;;3627805;39;20069;-57
2021/07/16 12:33:11;;;;;;;2.13;0.43;;;;;;;;;;3617811;39;20047;-51
2021/07/16 12:35:43;;;;;;;1.95;0.32;;;;;;;;;;3627623;39;20418;-55
2021/07/16 12:38:13;;;;;;;1.33;0.40;;;;;;;;;;3627790;39;21125;-56
2021/07/16 12:40:47;;;;;;;2.30;0.47;;;;;;;;;;3627638;39;20519;-53
2021/07/16 12:43:19;;;;;;;1.88;0.57;;;;;;;;;;3627617;39;20039;-57
2021/07/16 12:45:53;;;;;;;3.50;0.40;;;;;;;;;;3627673;39;20063;-50
2021/07/16 12:48:30;;;;;;;1.88;0.50;;;;;;;;;;3617737;39;20054;-51
2021/07/16 12:51:15;;;;;;;3.33;0.40;;;;;;;;;;3627546;39;20432;-51
2021/07/16 12:53:44;;;;;;;1.95;0.90;;;;;;;;;;3627689;39;20416;-56
2021/07/16 12:56:43;;;;;;;1.52;0.43;;;;;;;;;;3627522;39;20135;-57
2021/07/16 12:59:28;;;;;;;1.35;0.43;;;;;;;;;;3595170;39;20039;-50
2021/07/16 13:01:57;;;;;;;3.60;0.50;;;;;;;;;;3627804;39;20074;-46
2021/07/16 13:04:31;;;;;;;3.08;0.85;;;;;;;;;;3627345;39;20054;-52
2021/07/16 13:07:00;;;;;;;1.38;0.60;;;;;;;;;;3627434;39;20055;-50
2021/07/16 13:09:32;;;;;;;3.25;1.38;;;;;;;;;;3627270;39;20066;-53
2021/07/16 13:12:12;;;;;;;3.55;0.63;;;;;;;;;;3627239;39;20154;-53
2021/07/16 13:14:48;;;;;;;1.23;0.47;;;;;;;;;;3627427;39;20423;-54
2021/07/16 13:17:25;;;;;;;2.78;0.70;;;;;;;;;;3627462;39;20104;-57
2021/07/16 13:20:03;;;;;;;1.90;0.55;;;;;;;;;;3627292;39;20069;-57
2021/07/16 13:22:32;;;;;;;2.50;0.65;;;;;;;;;;3617531;39;20384;-57
2021/07/16 13:25:01;;;;;;;2.28;0.50;;;;;;;;;;3627566;39;20051;-55
2021/07/16 13:27:28;;;;;;;1.90;0.60;;;;;;;;;;3626873;39;20552;-55
2021/07/16 13:29:56;;;;;;;1.95;0.70;;;;;;;;;;3627515;39;20043;-44
2021/07/16 13:32:24;;;;;;;4.13;0.63;;;;;;;;;;3627504;39;20054;-53
2021/07/16 13:34:51;;;;;;;3.05;0.60;;;;;;;;;;3627420;39;20072;-54
2021/07/16 13:37:22;;;;;;;3.25;0.60;;;;;;;;;;3627279;39;20408;-49
2021/07/16 13:39:50;;;;;;;2.97;1.05;;;;;;;;;;3627045;39;20043;-56
2021/07/16 13:42:19;;;;;;;1.73;0.50;;;;;;;;;;3627216;39;20062;-56
2021/07/16 13:44:48;;;;;;;5.20;0.70;;;;;;;;;;3627229;39;20051;-54
2021/07/16 13:47:16;;;;;;;1.40;0.60;;;;;;;;;;3627206;39;20122;-53
2021/07/16 13:49:45;;;;;;;1.77;0.60;;;;;;;;;;3627354;39;20118;-53
2021/07/16 13:52:16;;;;;;;2.60;0.60;;;;;;;;;;3627429;39;20104;-57
2021/07/16 13:54:46;;;;;;;156.65;90.60;;;;;;;;;;3626796;39;20068;-51
2021/07/16 13:57:14;;;;;;;6.55;2.35;;;;;;;;;;3627547;39;20903;-57
2021/07/16 13:59:42;;;;;;;0.73;0.50;;;;;;;;;;3627164;39;20043;-54
2021/07/16 14:02:09;;;;;;;1.70;0.60;;;;;;;;;;3626990;39;20050;-58
2021/07/16 14:04:36;;;;;;;2.70;0.65;;;;;;;;;;3627129;39;20094;-54
2021/07/16 14:07:04;;;;;;;1.70;0.77;;;;;;;;;;3627085;39;20356;-58
2021/07/16 14:09:31;;;;;;;1.75;0.60;;;;;;;;;;3626965;39;20062;-50
2021/07/16 14:11:59;;;;;;;3.78;0.85;;;;;;;;;;3626824;39;20061;-52
2021/07/16 14:14:28;;;;;;;1.30;0.50;;;;;;;;;;3617562;39;20053;-50
2021/07/16 14:16:55;;;;;;;1.52;0.55;;;;;;;;;;3626813;39;20039;-57
2021/07/16 14:19:23;;;;;;;3.15;0.63;;;;;;;;;;3627038;39;20065;-57
2021/07/16 14:21:50;;;;;;;2.63;0.68;;;;;;;;;;3626977;39;20038;-56
2021/07/16 14:24:17;;;;;;;4.72;0.60;;;;;;;;;;3617648;39;20062;-56
2021/07/16 14:26:46;;;;;;;4.90;1.40;;;;;;;;;;3626041;39;20046;-48
2021/07/16 14:29:13;;;;;;;150.98;119.97;;;;;;;;;;3626323;39;20419;-53
2021/07/16 14:31:41;;;;;;;4.70;2.50;;;;;;;;;;3626960;39;20054;-56
2021/07/16 14:34:08;;;;;;;2.95;0.77;;;;;;;;;;3627023;39;20049;-56
2021/07/16 14:36:38;;;;;;;1.92;0.63;;;;;;;;;;3627039;39;20046;-58
2021/07/16 14:39:06;;;;;;;1.30;0.40;;;;;;;;;;3625046;39;20055;-57
2021/07/16 14:41:34;;;;;;;5.85;0.60;;;;;;;;;;3626836;39;20066;-58
2021/07/16 14:44:04;;;;;;;0.80;0.30;;;;;;;;;;3626890;39;20043;-56
2021/07/16 14:46:37;;;;;;;1.05;0.50;;;;;;;;;;3626563;39;20058;-53
2021/07/16 14:49:06;;;;;;;1.55;0.63;;;;;;;;;;3626784;39;20062;-57
2021/07/16 14:51:34;;;;;;;2.88;0.60;;;;;;;;;;3627148;39;20063;-56